Time;durP1;ratioP1;P1;durP2;ratioP2;P2;SDS_P1;SDS_P2;PMS_P1;PMS_P2;Temp;Humidity;BMP_temperature;BMP_pressure;BME280_temperature;BME280_humidity;BME280_pressure;Samples;Min_cycle;Max_cycle;Signal;HPM_P1;HPM_P2
2022/09/11 00:00:42;;;;;;;10.57;7.65;;;18.60;99.90;;;;;;5033066;28;20131;-64
2022/09/11 00:03:08;;;;;;;11.70;7.65;;;18.60;99.90;;;;;;5033457;28;20518;-64
2022/09/11 00:05:42;;;;;;;15.10;7.65;;;18.90;99.90;;;;;;5033443;28;20298;-64
2022/09/11 00:08:10;;;;;;;16.38;8.32;;;19.00;99.90;;;;;;5025899;28;20037;-64
2022/09/11 00:10:39;;;;;;;9.80;7.53;;;18.60;99.90;;;;;;5031549;28;20064;-64
2022/09/11 00:13:09;;;;;;;10.85;7.75;;;18.70;99.90;;;;;;5033133;28;20042;-64
2022/09/11 00:15:39;;;;;;;11.95;7.57;;;18.90;99.90;;;;;;5026279;28;20060;-64
2022/09/11 00:18:06;;;;;;;12.52;6.72;;;18.60;99.90;;;;;;5027725;28;20042;-64
2022/09/11 00:20:33;;;;;;;13.02;6.38;;;18.60;99.90;;;;;;5032986;28;20099;-64
2022/09/11 00:23:04;;;;;;;12.55;6.30;;;18.90;99.90;;;;;;5033387;28;20065;-64
2022/09/11 00:25:39;;;;;;;14.23;6.15;;;18.70;99.90;;;;;;5031259;28;20043;-64
2022/09/11 00:28:06;;;;;;;12.65;6.90;;;19.00;99.90;;;;;;5031779;28;20034;-63
2022/09/11 00:30:32;;;;;;;13.63;6.82;;;18.80;99.90;;;;;;5032258;28;20037;-64
2022/09/11 00:32:58;;;;;;;11.05;6.70;;;18.90;99.90;;;;;;5032917;28;20041;-64
2022/09/11 00:35:24;;;;;;;10.77;6.65;;;18.80;99.90;;;;;;5032694;28;20124;-64
2022/09/11 00:37:50;;;;;;;13.50;6.90;;;18.80;99.90;;;;;;5031815;28;20038;-64
2022/09/11 00:40:17;;;;;;;10.85;6.68;;;18.90;99.90;;;;;;5032219;28;20041;-64
2022/09/11 00:42:43;;;;;;;11.43;6.72;;;18.80;99.90;;;;;;5032354;28;20081;-64
2022/09/11 00:45:24;;;;;;;11.90;6.70;;;18.70;99.90;;;;;;5031679;28;20084;-64
2022/09/11 00:47:51;;;;;;;11.40;7.13;;;18.80;99.90;;;;;;5013675;28;20095;-64
2022/09/11 00:50:20;;;;;;;9.63;7.13;;;19.00;99.90;;;;;;5032488;28;20033;-64
2022/09/11 00:53:14;;;;;;;12.45;6.95;;;19.00;99.90;;;;;;5032144;28;20042;-64
2022/09/11 00:55:43;;;;;;;10.15;6.55;;;19.00;99.90;;;;;;5028472;28;20060;-64
2022/09/11 00:58:15;;;;;;;12.63;6.68;;;18.70;99.90;;;;;;5031956;28;20452;-64
2022/09/11 01:00:43;;;;;;;8.65;6.78;;;18.70;99.90;;;;;;5031937;28;20041;-64
2022/09/11 01:03:09;;;;;;;11.30;6.70;;;18.80;99.90;;;;;;5032293;28;20041;-64
2022/09/11 01:05:36;;;;;;;10.20;7.35;;;19.00;99.90;;;;;;5031580;28;20045;-64
2022/09/11 01:08:02;;;;;;;10.73;7.68;;;18.80;99.90;;;;;;5030315;28;20040;-64
2022/09/11 01:11:05;;;;;;;9.23;5.82;;;18.80;99.90;;;;;;5031747;28;20049;-64
2022/09/11 01:13:47;;;;;;;9.93;6.88;;;18.90;99.90;;;;;;5031479;28;20076;-64
2022/09/11 01:16:33;;;;;;;9.82;7.50;;;18.80;99.90;;;;;;5031878;28;20045;-64
2022/09/11 01:19:35;;;;;;;9.77;7.43;;;18.80;99.90;;;;;;5031156;28;20087;-64
2022/09/11 01:22:25;;;;;;;11.70;6.88;;;18.70;99.90;;;;;;5031726;28;20041;-64
2022/09/11 01:25:03;;;;;;;11.52;7.65;;;18.80;99.90;;;;;;5022454;28;20057;-64
2022/09/11 01:27:52;;;;;;;10.77;7.45;;;18.60;99.90;;;;;;5029894;28;20041;-64
2022/09/11 01:30:19;;;;;;;12.48;8.20;;;18.60;99.90;;;;;;5026732;28;20033;-64
2022/09/11 01:33:07;;;;;;;13.43;9.60;;;18.60;99.90;;;;;;5031707;28;20087;-64
2022/09/11 01:35:43;;;;;;;10.13;8.43;;;18.90;99.90;;;;;;5031610;28;20037;-64
2022/09/11 01:38:17;;;;;;;16.40;8.27;;;18.70;99.90;;;;;;5031040;28;20045;-64
2022/09/11 01:40:57;;;;;;;15.35;6.90;;;18.70;99.90;;;;;;5031106;28;20084;-64
2022/09/11 01:43:25;;;;;;;8.70;4.03;;;18.70;99.90;;;;;;5031300;28;20502;-63
2022/09/11 01:45:52;;;;;;;9.27;5.07;;;19.00;99.90;;;;;;5031043;28;20053;-64
2022/09/11 01:48:28;;;;;;;4.55;3.80;;;18.80;99.90;;;;;;5029695;28;20067;-64
2022/09/11 01:50:57;;;;;;;7.47;5.05;;;18.50;99.90;;;;;;5030593;28;20036;-64
2022/09/11 01:53:28;;;;;;;10.00;7.68;;;18.50;99.90;;;;;;5031921;28;20120;-64
2022/09/11 01:56:01;;;;;;;13.27;9.07;;;18.60;99.90;;;;;;5026382;28;20056;-63
2022/09/11 01:58:35;;;;;;;12.30;8.40;;;18.30;99.90;;;;;;5015718;28;20111;-64
2022/09/11 02:01:08;;;;;;;7.85;6.30;;;18.70;99.90;;;;;;5019895;28;20037;-64
2022/09/11 02:03:40;;;;;;;7.55;4.47;;;18.40;99.90;;;;;;5031689;28;20537;-64
2022/09/11 02:06:31;;;;;;;5.18;4.40;;;18.30;99.90;;;;;;5012934;28;20045;-63
2022/09/11 02:09:01;;;;;;;5.38;4.88;;;18.30;99.90;;;;;;5030469;28;20037;-64
2022/09/11 02:11:32;;;;;;;13.63;7.80;;;18.00;99.90;;;;;;5012087;28;20425;-64
2022/09/11 02:14:23;;;;;;;54.03;12.00;;;18.00;99.90;;;;;;5031194;28;20104;-64
2022/09/11 02:16:51;;;;;;;45.78;8.25;;;17.80;99.90;;;;;;5030117;28;20044;-64
2022/09/11 02:19:28;;;;;;;10.23;7.38;;;17.80;99.90;;;;;;5028995;28;20037;-64
2022/09/11 02:21:56;;;;;;;11.68;8.55;;;18.00;99.90;;;;;;5035506;28;20084;-64
2022/09/11 02:24:22;;;;;;;11.02;9.43;;;17.80;99.90;;;;;;5034706;28;20515;-64
2022/09/11 02:26:57;;;;;;;13.30;8.57;;;18.20;99.90;;;;;;5034658;28;20399;-64
2022/09/11 02:29:23;;;;;;;13.23;8.48;;;18.20;99.90;;;;;;5022690;28;20044;-64
2022/09/11 02:31:51;;;;;;;10.38;7.70;;;17.80;99.90;;;;;;5034704;28;20119;-64
2022/09/11 02:34:18;;;;;;;11.10;8.88;;;18.40;99.90;;;;;;5034887;28;20042;-64
2022/09/11 02:36:47;;;;;;;16.90;8.43;;;18.10;99.90;;;;;;5034960;28;20053;-64
2022/09/11 02:39:19;;;;;;;16.90;9.73;;;18.30;99.90;;;;;;5033875;28;20041;-64
2022/09/11 02:42:06;;;;;;;12.80;8.30;;;17.90;99.90;;;;;;5034605;28;20053;-64
2022/09/11 02:44:43;;;;;;;17.27;8.88;;;17.90;99.90;;;;;;5034716;28;20403;-64
2022/09/11 02:47:21;;;;;;;11.27;7.45;;;17.90;99.90;;;;;;5016606;28;20129;-64
2022/09/11 02:50:17;;;;;;;9.57;6.22;;;18.00;99.90;;;;;;5033394;28;20041;-63
2022/09/11 02:53:04;;;;;;;8.68;4.43;;;18.00;99.90;;;;;;5034576;28;20032;-64
2022/09/11 02:55:35;;;;;;;7.15;4.22;;;17.80;99.90;;;;;;5030980;28;20064;-64
2022/09/11 02:58:21;;;;;;;5.97;3.08;;;17.70;99.90;;;;;;5034141;28;20092;-63
2022/09/11 03:00:47;;;;;;;132.02;6.05;;;17.50;99.90;;;;;;5034059;28;20041;-64
2022/09/11 03:03:13;;;;;;;43.00;4.93;;;17.40;99.90;;;;;;5033230;28;20048;-64
2022/09/11 03:05:40;;;;;;;271.13;11.90;;;17.50;99.90;;;;;;5034258;28;20034;-64
2022/09/11 03:08:06;;;;;;;18.50;5.05;;;17.20;99.90;;;;;;5015809;28;20040;-64
2022/09/11 03:10:32;;;;;;;31.40;3.78;;;17.70;99.90;;;;;;5032948;28;20056;-64
2022/09/11 03:12:58;;;;;;;7.18;5.85;;;17.70;99.90;;;;;;5016365;28;20073;-64
2022/09/11 03:15:24;;;;;;;8.68;5.50;;;17.70;99.90;;;;;;5033604;28;20402;-64
2022/09/11 03:17:50;;;;;;;11.77;5.95;;;17.30;99.90;;;;;;5031802;28;20033;-63
2022/09/11 03:20:16;;;;;;;5.10;4.60;;;17.20;99.90;;;;;;5026469;28;20049;-64
2022/09/11 03:22:42;;;;;;;285.27;11.98;;;17.20;99.90;;;;;;5033523;28;20137;-64
2022/09/11 03:25:09;;;;;;;359.20;10.65;;;17.10;99.90;;;;;;5033366;28;20045;-64
2022/09/11 03:27:38;;;;;;;184.48;7.43;;;17.00;99.90;;;;;;5015332;28;20394;-64
2022/09/11 03:30:05;;;;;;;30.02;4.18;;;17.50;99.90;;;;;;5033278;28;20083;-64
2022/09/11 03:32:31;;;;;;;205.73;7.80;;;17.40;99.90;;;;;;5033083;28;20116;-63
2022/09/11 03:34:57;;;;;;;312.85;11.63;;;17.10;99.90;;;;;;5033256;28;20029;-64
2022/09/11 03:37:23;;;;;;;206.60;7.75;;;17.30;99.90;;;;;;5034071;28;20447;-63
2022/09/11 03:39:48;;;;;;;11.73;3.00;;;17.00;99.90;;;;;;5032300;28;20053;-64
2022/09/11 03:42:14;;;;;;;11.70;3.42;;;17.10;99.90;;;;;;5032555;28;20033;-64
2022/09/11 03:44:40;;;;;;;50.67;4.10;;;17.40;99.90;;;;;;5033200;28;20124;-63
2022/09/11 03:47:06;;;;;;;35.47;3.60;;;17.20;99.90;;;;;;5033017;28;20045;-64
2022/09/11 03:49:31;;;;;;;63.17;4.30;;;17.50;99.90;;;;;;5033614;28;20034;-63
2022/09/11 03:51:57;;;;;;;32.00;4.65;;;17.00;99.90;;;;;;5032382;28;20398;-64
2022/09/11 03:54:22;;;;;;;7.78;5.15;;;16.90;99.90;;;;;;5032711;28;20045;-64
2022/09/11 03:56:48;;;;;;;43.78;5.72;;;17.00;99.90;;;;;;5031952;28;20037;-63
2022/09/11 03:59:13;;;;;;;14.00;3.80;;;16.90;99.90;;;;;;5033254;28;20112;-64
2022/09/11 04:01:39;;;;;;;4.55;4.00;;;16.90;99.90;;;;;;5032932;28;20489;-63
2022/09/11 04:04:05;;;;;;;12.95;4.22;;;17.00;99.90;;;;;;5033097;28;20095;-64
2022/09/11 04:06:33;;;;;;;5.75;3.67;;;17.10;99.90;;;;;;5032087;28;20136;-64
2022/09/11 04:08:59;;;;;;;6.15;3.53;;;17.30;99.90;;;;;;5025317;28;20033;-63
2022/09/11 04:11:25;;;;;;;6.95;3.00;;;17.40;99.90;;;;;;5030984;28;20054;-64
2022/09/11 04:13:50;;;;;;;8.57;2.60;;;17.00;99.90;;;;;;5032697;28;20380;-64
2022/09/11 04:16:18;;;;;;;3.72;2.63;;;17.30;99.90;;;;;;5030950;28;20049;-63
2022/09/11 04:18:45;;;;;;;6.28;3.97;;;16.90;99.90;;;;;;5033443;28;20067;-64
2022/09/11 04:21:15;;;;;;;4.85;3.65;;;17.10;99.90;;;;;;5032663;28;20498;-64
2022/09/11 04:23:41;;;;;;;5.97;4.75;;;17.20;99.90;;;;;;5025879;28;20443;-64
2022/09/11 04:26:18;;;;;;;5.80;3.28;;;17.00;99.90;;;;;;5030667;28;20045;-64
2022/09/11 04:28:44;;;;;;;4.85;2.10;;;17.20;99.90;;;;;;5027277;28;20116;-63
2022/09/11 04:31:10;;;;;;;60.30;2.40;;;16.90;99.90;;;;;;5024442;28;20060;-64
2022/09/11 04:33:36;;;;;;;2.60;1.55;;;17.20;99.90;;;;;;5032740;28;20483;-64
2022/09/11 04:36:06;;;;;;;12.73;2.40;;;16.90;99.90;;;;;;5030903;28;20131;-64
2022/09/11 04:38:32;;;;;;;16.70;2.83;;;17.20;99.90;;;;;;5024603;28;20033;-64
2022/09/11 04:41:07;;;;;;;40.83;3.95;;;17.30;99.90;;;;;;5032311;28;20040;-63
2022/09/11 04:43:35;;;;;;;8.97;5.27;;;17.30;99.90;;;;;;5032247;28;20091;-64
2022/09/11 04:46:10;;;;;;;384.42;13.98;;;17.00;99.90;;;;;;5031142;28;20072;-64
2022/09/11 04:48:38;;;;;;;5.88;4.72;;;16.80;99.90;;;;;;5024897;28;20037;-64
2022/09/11 04:51:06;;;;;;;5.05;3.45;;;17.60;99.90;;;;;;5025756;28;20033;-64
2022/09/11 04:53:33;;;;;;;6.57;5.05;;;16.90;99.90;;;;;;5030013;28;20067;-63
2022/09/11 04:56:03;;;;;;;186.10;12.00;;;17.60;99.90;;;;;;5028890;28;20041;-64
2022/09/11 04:58:29;;;;;;;9.98;4.70;;;17.60;99.90;;;;;;5030968;28;20450;-64
2022/09/11 05:00:54;;;;;;;4.57;3.67;;;17.60;99.90;;;;;;5025134;28;20092;-64
2022/09/11 05:03:20;;;;;;;351.60;12.85;;;16.90;99.90;;;;;;5024231;28;20136;-63
2022/09/11 05:05:46;;;;;;;27.88;4.85;;;17.40;99.90;;;;;;5030872;28;20042;-64
2022/09/11 05:08:11;;;;;;;153.57;9.32;;;17.60;99.90;;;;;;5025268;28;20034;-63
2022/09/11 05:10:37;;;;;;;680.58;20.17;;;17.60;99.90;;;;;;5029055;28;20041;-64
2022/09/11 05:13:03;;;;;;;518.67;16.48;;;17.10;99.90;;;;;;5031873;28;20041;-63
2022/09/11 05:15:30;;;;;;;287.08;9.18;;;17.70;99.90;;;;;;5031169;28;20037;-64
2022/09/11 05:17:56;;;;;;;40.92;3.25;;;17.70;99.90;;;;;;5030847;28;20041;-64
2022/09/11 05:20:22;;;;;;;14.63;5.68;;;17.50;99.90;;;;;;5013240;28;20749;-63
2022/09/11 05:22:49;;;;;;;7.72;6.38;;;17.00;99.90;;;;;;5031454;28;20112;-63
2022/09/11 05:25:17;;;;;;;11.60;6.90;;;17.70;99.90;;;;;;5030912;28;20091;-64
2022/09/11 05:27:43;;;;;;;23.13;8.02;;;17.60;99.90;;;;;;5015135;28;20069;-63
2022/09/11 05:30:09;;;;;;;175.95;12.82;;;17.10;99.90;;;;;;5030136;28;20114;-63
2022/09/11 05:32:35;;;;;;;143.88;8.38;;;17.00;99.90;;;;;;5022963;28;20042;-63
2022/09/11 05:35:00;;;;;;;54.00;5.53;;;17.20;99.90;;;;;;5030993;28;20045;-64
2022/09/11 05:37:26;;;;;;;97.50;6.07;;;17.20;99.90;;;;;;5031684;28;20041;-64
2022/09/11 05:39:51;;;;;;;55.20;5.05;;;17.10;99.90;;;;;;5023082;28;20478;-64
2022/09/11 05:42:17;;;;;;;468.08;15.25;;;17.20;99.90;;;;;;5030330;28;20041;-64
2022/09/11 05:44:43;;;;;;;412.63;12.63;;;17.20;99.90;;;;;;5031351;28;20029;-63
2022/09/11 05:47:09;;;;;;;598.40;18.52;;;17.60;99.90;;;;;;5031033;28;20037;-64
2022/09/11 05:49:34;;;;;;;154.82;6.70;;;17.00;99.90;;;;;;5031460;28;20025;-64
2022/09/11 05:52:00;;;;;;;203.07;7.38;;;17.80;99.90;;;;;;5030048;28;20041;-64
2022/09/11 05:54:26;;;;;;;116.82;5.35;;;17.60;99.90;;;;;;5029066;28;20037;-64
2022/09/11 05:56:51;;;;;;;10.02;2.35;;;17.30;99.90;;;;;;5030796;28;20774;-63
2022/09/11 05:59:19;;;;;;;8.68;2.15;;;17.10;99.90;;;;;;5023488;28;20483;-64
2022/09/11 06:01:46;;;;;;;6.95;3.95;;;17.30;99.90;;;;;;5029564;28;20091;-64
2022/09/11 06:04:13;;;;;;;5.50;3.45;;;17.00;99.90;;;;;;5031093;28;20060;-64
2022/09/11 06:06:38;;;;;;;24.38;3.10;;;17.10;99.90;;;;;;5013349;28;20037;-64
2022/09/11 06:09:06;;;;;;;5.65;4.50;;;17.70;99.90;;;;;;5031257;28;20037;-64
2022/09/11 06:11:31;;;;;;;6.07;4.72;;;18.00;99.90;;;;;;5027996;28;20131;-64
2022/09/11 06:13:57;;;;;;;6.63;5.50;;;17.80;99.90;;;;;;5025902;28;20092;-64
2022/09/11 06:16:24;;;;;;;7.90;6.88;;;17.40;99.90;;;;;;5026123;28;20040;-64
2022/09/11 06:18:51;;;;;;;8.30;6.03;;;17.50;99.90;;;;;;5026270;28;20038;-64
2022/09/11 06:21:19;;;;;;;13.02;8.40;;;18.50;99.90;;;;;;5027551;28;20075;-64
2022/09/11 06:23:48;;;;;;;12.32;9.35;;;17.80;99.90;;;;;;5030100;28;20052;-64
2022/09/11 06:26:17;;;;;;;10.68;9.57;;;18.70;99.90;;;;;;5029887;28;20112;-64
2022/09/11 06:28:43;;;;;;;13.43;9.20;;;18.50;99.90;;;;;;5025666;28;20064;-64
2022/09/11 06:31:17;;;;;;;15.35;10.27;;;18.50;99.90;;;;;;5023700;28;20034;-64
2022/09/11 06:33:44;;;;;;;13.23;11.00;;;18.30;99.90;;;;;;5029320;28;20040;-64
2022/09/11 06:36:16;;;;;;;15.57;11.82;;;18.40;99.90;;;;;;5029273;28;20124;-65
2022/09/11 06:38:43;;;;;;;16.80;12.40;;;18.90;99.90;;;;;;5027826;28;20577;-65
2022/09/11 06:41:12;;;;;;;20.05;14.90;;;18.30;99.90;;;;;;5025374;28;20041;-64
2022/09/11 06:43:38;;;;;;;17.77;14.40;;;18.40;99.90;;;;;;5026726;28;20029;-64
2022/09/11 06:46:05;;;;;;;19.05;14.50;;;19.70;99.90;;;;;;5024943;28;20049;-64
2022/09/11 06:48:31;;;;;;;17.77;14.10;;;19.40;99.90;;;;;;5027883;28;20518;-64
2022/09/11 06:51:01;;;;;;;19.88;14.45;;;19.80;99.90;;;;;;5027766;28;20033;-65
2022/09/11 06:53:27;;;;;;;20.08;15.05;;;19.90;99.90;;;;;;5028857;28;20056;-65
2022/09/11 06:55:56;;;;;;;20.10;14.85;;;19.00;99.90;;;;;;5028502;28;20041;-65
2022/09/11 06:58:22;;;;;;;17.48;14.48;;;19.80;99.90;;;;;;5027343;28;20128;-65
2022/09/11 07:00:48;;;;;;;17.20;13.52;;;19.00;99.90;;;;;;5028043;28;20578;-65
2022/09/11 07:03:14;;;;;;;16.35;12.68;;;20.10;99.90;;;;;;5025849;28;20453;-65
2022/09/11 07:05:45;;;;;;;16.30;12.07;;;20.10;99.90;;;;;;5026344;28;20050;-64
2022/09/11 07:08:11;;;;;;;15.90;12.50;;;19.40;99.90;;;;;;5031204;28;20037;-65
2022/09/11 07:10:37;;;;;;;14.60;12.68;;;19.40;99.90;;;;;;5027309;28;20061;-66
2022/09/11 07:13:03;;;;;;;16.65;11.63;;;20.50;99.90;;;;;;5028876;28;20463;-65
2022/09/11 07:15:28;;;;;;;20.75;11.95;;;20.00;99.90;;;;;;5032370;28;20033;-65
2022/09/11 07:17:54;;;;;;;17.48;12.25;;;20.50;99.90;;;;;;5030530;28;20037;-65
2022/09/11 07:20:21;;;;;;;15.20;11.70;;;21.10;99.90;;;;;;5031029;28;20391;-65
2022/09/11 07:22:46;;;;;;;14.85;10.60;;;20.80;99.90;;;;;;5017924;28;20085;-65
2022/09/11 07:25:13;;;;;;;15.52;9.80;;;21.20;99.90;;;;;;5032234;28;20054;-65
2022/09/11 07:27:38;;;;;;;13.38;9.13;;;20.90;99.90;;;;;;5025358;28;20116;-65
2022/09/11 07:30:04;;;;;;;12.60;5.60;;;20.50;99.90;;;;;;5027773;28;20153;-65
2022/09/11 07:32:30;;;;;;;8.30;4.57;;;20.60;99.90;;;;;;5032875;28;20080;-65
2022/09/11 07:34:55;;;;;;;9.85;5.95;;;21.00;99.90;;;;;;5023535;28;20529;-65
2022/09/11 07:37:21;;;;;;;10.00;5.63;;;21.20;99.90;;;;;;5033555;28;20529;-65
2022/09/11 07:39:47;;;;;;;10.63;5.50;;;21.30;99.90;;;;;;5032410;28;20045;-65
2022/09/11 07:42:12;;;;;;;8.40;5.40;;;21.20;99.90;;;;;;5032706;28;20029;-67
2022/09/11 07:44:38;;;;;;;7.65;5.80;;;21.70;99.90;;;;;;5030870;28;20124;-70
2022/09/11 07:47:04;;;;;;;9.70;5.65;;;21.30;99.90;;;;;;5013918;28;20037;-64
2022/09/11 07:49:29;;;;;;;6.35;4.88;;;21.60;99.90;;;;;;5026924;28;20061;-64
2022/09/11 07:51:55;;;;;;;10.95;5.95;;;21.50;99.90;;;;;;5026606;28;20541;-65
2022/09/11 07:54:21;;;;;;;9.52;4.68;;;21.80;99.90;;;;;;5028609;28;20033;-65
2022/09/11 07:56:47;;;;;;;7.18;4.30;;;22.00;99.90;;;;;;5031182;28;20072;-65
2022/09/11 07:59:13;;;;;;;9.10;4.53;;;22.30;99.90;;;;;;5014577;28;20073;-66
2022/09/11 08:01:41;;;;;;;8.75;4.80;;;23.10;99.90;;;;;;5031930;28;20502;-66
2022/09/11 08:04:10;;;;;;;6.57;4.15;;;23.30;99.90;;;;;;5031431;28;20033;-66
2022/09/11 08:06:37;;;;;;;6.30;3.80;;;23.00;99.90;;;;;;5009899;28;20042;-66
2022/09/11 08:09:08;;;;;;;8.23;3.85;;;23.30;99.90;;;;;;5031949;28;20044;-66
2022/09/11 08:11:40;;;;;;;6.03;3.22;;;23.20;99.90;;;;;;5030431;28;20160;-66
2022/09/11 08:14:06;;;;;;;8.45;3.65;;;23.30;99.90;;;;;;5013092;28;20498;-66
2022/09/11 08:16:35;;;;;;;6.15;3.60;;;23.20;99.90;;;;;;5031133;28;20102;-66
2022/09/11 08:19:01;;;;;;;6.53;3.83;;;23.70;99.90;;;;;;5028137;28;20045;-66
2022/09/11 08:21:27;;;;;;;5.25;3.63;;;23.60;99.90;;;;;;5029968;28;20033;-66
2022/09/11 08:23:52;;;;;;;5.72;3.22;;;23.40;99.90;;;;;;5029495;28;20516;-66
2022/09/11 08:26:21;;;;;;;10.57;3.65;;;23.30;99.90;;;;;;5031956;28;20042;-66
2022/09/11 08:28:51;;;;;;;6.63;3.85;;;23.30;99.90;;;;;;5027252;28;20047;-66
2022/09/11 08:31:18;;;;;;;4.88;3.50;;;23.10;99.90;;;;;;5010768;28;20034;-66
2022/09/11 08:33:44;;;;;;;5.25;3.60;;;23.00;99.90;;;;;;5026615;28;20052;-66
2022/09/11 08:36:13;;;;;;;8.35;3.55;;;22.90;99.90;;;;;;5030254;28;20120;-66
2022/09/11 08:38:39;;;;;;;4.93;2.85;;;23.10;99.90;;;;;;5029886;28;20049;-66
2022/09/11 08:41:30;;;;;;;7.65;2.88;;;23.60;99.90;;;;;;5030060;28;20049;-67
2022/09/11 08:44:10;;;;;;;3.60;2.60;;;24.10;99.90;;;;;;5021973;28;20477;-67
2022/09/11 08:46:40;;;;;;;6.53;3.00;;;24.60;99.90;;;;;;5027956;28;20043;-67
2022/09/11 08:49:13;;;;;;;5.13;2.60;;;25.00;99.90;;;;;;5011786;28;20542;-67
2022/09/11 08:51:39;;;;;;;8.10;2.97;;;25.40;99.90;;;;;;5030246;28;20075;-67
2022/09/11 08:54:05;;;;;;;3.97;2.70;;;25.70;99.90;;;;;;5023211;28;20049;-67
2022/09/11 08:56:35;;;;;;;5.18;2.95;;;25.60;99.90;;;;;;5008592;28;20080;-67
2022/09/11 08:59:27;;;;;;;6.20;2.65;;;26.00;99.90;;;;;;5028888;28;20077;-67
2022/09/11 09:02:11;;;;;;;3.83;2.30;;;26.20;99.90;;;;;;5028276;28;20068;-71
2022/09/11 09:04:49;;;;;;;6.43;2.58;;;26.40;99.90;;;;;;5010381;28;20345;-67
2022/09/11 09:07:30;;;;;;;6.40;2.50;;;26.20;99.90;;;;;;5011377;28;20049;-67
2022/09/11 09:10:23;;;;;;;3.63;2.25;;;25.90;99.90;;;;;;5027329;28;20594;-66
2022/09/11 09:13:01;;;;;;;4.15;2.63;;;25.80;99.90;;;;;;5031188;28;20168;-64
2022/09/11 09:15:42;;;;;;;3.85;2.53;;;25.20;99.90;;;;;;5027972;28;20040;-64
2022/09/11 09:18:11;;;;;;;7.05;2.40;;;24.70;99.90;;;;;;5009816;28;20034;-64
2022/09/11 09:20:43;;;;;;;6.20;2.70;;;24.90;99.90;;;;;;5026994;28;20132;-64
2022/09/11 09:23:22;;;;;;;3.22;2.50;;;24.90;99.90;;;;;;5024480;28;20042;-64
2022/09/11 09:25:51;;;;;;;6.60;2.08;;;24.60;99.90;;;;;;5024044;28;20049;-64
2022/09/11 09:28:25;;;;;;;4.28;1.92;;;24.70;99.90;;;;;;5023865;28;20037;-64
2022/09/11 09:30:56;;;;;;;4.63;2.38;;;24.70;99.90;;;;;;5028376;28;20036;-64
2022/09/11 09:33:30;;;;;;;6.10;2.42;;;24.90;99.90;;;;;;5025735;28;20033;-64
2022/09/11 09:35:56;;;;;;;4.25;1.83;;;25.00;99.90;;;;;;5029758;28;20043;-65
2022/09/11 09:38:27;;;;;;;5.55;2.35;;;24.90;99.90;;;;;;5023795;28;20037;-64
2022/09/11 09:41:11;;;;;;;4.68;2.50;;;25.00;99.90;;;;;;5009591;28;20095;-64
2022/09/11 09:43:45;;;;;;;5.50;2.70;;;25.20;99.90;;;;;;5025645;28;20041;-64
2022/09/11 09:46:14;;;;;;;5.85;2.40;;;25.20;99.90;;;;;;5025823;28;20402;-71
2022/09/11 09:48:40;;;;;;;9.48;2.60;;;25.40;99.90;;;;;;5027218;28;20119;-72
2022/09/11 09:51:11;;;;;;;6.18;2.40;;;25.00;99.90;;;;;;5028123;28;20041;-72
2022/09/11 09:53:47;;;;;;;8.38;2.90;;;24.60;99.90;;;;;;5010879;28;20457;-71
2022/09/11 09:56:15;;;;;;;4.40;2.30;;;24.80;99.90;;;;;;5011150;28;20046;-71
2022/09/11 09:59:00;;;;;;;6.80;2.20;;;25.00;99.90;;;;;;5009337;28;20464;-71
2022/09/11 10:01:53;;;;;;;5.68;2.30;;;25.30;99.90;;;;;;5018500;28;20091;-70
2022/09/11 10:04:28;;;;;;;2.92;2.10;;;25.60;99.90;;;;;;5010017;28;20037;-71
2022/09/11 10:07:10;;;;;;;4.70;2.38;;;25.80;99.90;;;;;;5014914;28;20402;-71
2022/09/11 10:09:44;;;;;;;3.85;2.53;;;25.40;99.90;;;;;;5011887;28;20052;-71
2022/09/11 10:12:21;;;;;;;5.93;2.50;;;25.00;99.90;;;;;;5012780;28;20057;-71
2022/09/11 10:14:54;;;;;;;8.10;2.70;;;24.70;75.30;;;;;;5014242;28;20044;-67
2022/09/11 10:17:28;;;;;;;6.40;2.83;;;24.50;99.90;;;;;;5011749;28;20049;-67
2022/09/11 10:19:56;;;;;;;4.20;2.50;;;24.30;99.90;;;;;;5032027;28;20100;-68
2022/09/11 10:22:31;;;;;;;4.07;2.30;;;24.00;1.00;;;;;;5015473;28;20042;-67
2022/09/11 10:25:14;;;;;;;4.10;2.30;;;23.80;12.50;;;;;;5012413;28;20103;-67
2022/09/11 10:28:04;;;;;;;7.72;2.40;;;24.00;99.90;;;;;;5012933;28;20037;-66
2022/09/11 10:30:40;;;;;;;6.68;3.38;;;24.60;99.90;;;;;;5011020;28;20045;-66
2022/09/11 10:33:28;;;;;;;8.05;2.78;;;25.00;99.20;;;;;;5012837;28;20052;-67
2022/09/11 10:35:55;;;;;;;5.45;2.28;;;25.30;99.90;;;;;;5016551;28;20042;-67
2022/09/11 10:38:26;;;;;;;6.30;2.38;;;25.20;1.00;;;;;;5011916;28;20049;-67
2022/09/11 10:40:57;;;;;;;5.95;2.55;;;24.90;99.90;;;;;;5006915;28;20076;-68
2022/09/11 10:43:28;;;;;;;9.57;3.20;;;25.10;99.90;;;;;;5017235;28;20041;-67
2022/09/11 10:46:38;;;;;;;5.50;2.60;;;25.20;99.90;;;;;;5011447;28;20046;-68
2022/09/11 10:49:04;;;;;;;7.22;2.20;;;25.00;73.00;;;;;;4991787;28;20055;-67
2022/09/11 10:51:33;;;;;;;5.00;2.38;;;24.70;66.60;;;;;;5012699;28;20037;-67
2022/09/11 10:54:36;;;;;;;6.10;2.30;;;24.70;26.50;;;;;;5031113;28;20048;-68
2022/09/11 10:57:20;;;;;;;7.18;2.22;;;24.80;99.90;;;;;;5015450;28;20037;-67
2022/09/11 11:00:07;;;;;;;4.90;2.63;;;24.70;99.90;;;;;;5018114;28;20045;-67
2022/09/11 11:02:36;;;;;;;9.02;3.03;;;24.70;99.90;;;;;;5028618;28;20057;-68
2022/09/11 11:05:26;;;;;;;4.03;2.08;;;25.10;99.90;;;;;;5015422;28;20052;-69
2022/09/11 11:08:10;;;;;;;4.75;2.15;;;25.50;1.00;;;;;;5014289;28;20088;-69
2022/09/11 11:11:13;;;;;;;10.60;2.50;;;25.70;99.90;;;;;;5029117;28;20101;-63
2022/09/11 11:13:59;;;;;;;8.55;2.67;;;25.20;99.90;;;;;;5010723;28;20092;-63
2022/09/11 11:16:32;;;;;;;;;;;24.70;99.90;;;;;;5032036;28;20049;-64
2022/09/11 11:18:58;;;;;;;5.88;2.75;;;24.30;16.10;;;;;;5032503;28;19917;-64
2022/09/11 11:21:43;;;;;;;5.20;3.20;;;24.10;99.90;;;;;;5032523;28;20049;-64
2022/09/11 11:24:41;;;;;;;4.95;2.78;;;24.10;99.90;;;;;;5030459;28;20053;-64
2022/09/11 11:27:24;;;;;;;4.93;2.45;;;24.00;80.40;;;;;;5030909;28;20479;-64
2022/09/11 11:30:07;;;;;;;10.45;3.30;;;24.20;78.00;;;;;;5028627;28;20060;-64
2022/09/11 11:33:06;;;;;;;5.75;2.70;;;24.20;99.90;;;;;;5026789;28;20029;-64
2022/09/11 11:35:57;;;;;;;6.57;2.40;;;24.20;99.90;;;;;;5026854;28;20095;-63
2022/09/11 11:38:50;;;;;;;7.95;2.85;;;24.30;99.90;;;;;;5029790;28;20045;-64
2022/09/11 11:41:45;;;;;;;5.78;2.40;;;24.30;99.90;;;;;;5031156;28;20468;-63
2022/09/11 11:44:15;;;;;;;4.68;2.70;;;24.10;99.90;;;;;;5028400;28;20443;-64
2022/09/11 11:46:51;;;;;;;4.47;2.60;;;24.10;99.90;;;;;;5031649;28;20038;-63
2022/09/11 11:49:19;;;;;;;7.00;3.13;;;23.80;99.90;;;;;;5033326;28;20037;-63
2022/09/11 11:51:52;;;;;;;4.80;2.88;;;23.80;99.90;;;;;;5021681;28;20537;-64
2022/09/11 11:54:28;;;;;;;6.78;4.13;;;23.60;99.90;;;;;;5032566;28;20037;-65
2022/09/11 11:57:30;;;;;;;6.57;3.03;;;23.50;99.90;;;;;;5030279;28;20041;-63
2022/09/11 12:00:08;;;;;;;8.10;3.05;;;23.60;99.90;;;;;;5001885;28;20049;-64
2022/09/11 12:02:50;;;;;;;6.22;2.92;;;23.50;99.90;;;;;;5031476;28;20072;-63
2022/09/11 12:05:23;;;;;;;3.70;2.60;;;23.70;99.90;;;;;;5030007;28;20073;-62
2022/09/11 12:07:49;;;;;;;8.48;3.30;;;23.70;99.90;;;;;;5006013;28;20072;-63
2022/09/11 12:10:34;;;;;;;6.63;2.63;;;23.60;99.90;;;;;;5027643;28;20064;-62
2022/09/11 12:13:04;;;;;;;8.98;3.35;;;23.70;99.90;;;;;;5022797;28;20046;-63
2022/09/11 12:15:33;;;;;;;5.57;3.38;;;23.80;99.90;;;;;;5028718;28;20033;-62
2022/09/11 12:18:01;;;;;;;7.80;4.40;;;23.80;99.90;;;;;;5026900;28;20033;-62
2022/09/11 12:20:39;;;;;;;6.40;3.63;;;23.80;99.90;;;;;;5031239;28;20506;-64
2022/09/11 12:23:30;;;;;;;4.93;2.60;;;23.80;99.90;;;;;;5011401;28;20128;-63
2022/09/11 12:26:07;;;;;;;7.72;2.60;;;23.80;99.90;;;;;;5026294;28;20044;-63
2022/09/11 12:28:34;;;;;;;5.55;2.75;;;23.70;99.90;;;;;;5030835;28;20513;-63
2022/09/11 12:31:03;;;;;;;9.38;2.83;;;23.70;99.90;;;;;;5012213;28;20438;-63
2022/09/11 12:33:49;;;;;;;6.35;3.28;;;23.80;99.90;;;;;;5022807;28;20567;-63
2022/09/11 12:36:23;;;;;;;3.88;2.50;;;23.70;99.90;;;;;;5029119;28;20047;-63
2022/09/11 12:39:21;;;;;;;5.95;3.30;;;23.70;99.90;;;;;;5031604;28;20069;-63
2022/09/11 12:41:46;;;;;;;8.10;3.05;;;23.80;99.90;;;;;;5026311;28;20156;-62
2022/09/11 12:44:31;;;;;;;6.88;3.85;;;23.80;99.90;;;;;;5031438;28;20415;-63
2022/09/11 12:46:57;;;;;;;8.90;4.00;;;23.90;99.90;;;;;;5027972;28;20383;-63
2022/09/11 12:49:26;;;;;;;8.38;4.55;;;23.90;99.90;;;;;;5028223;28;20036;-64
2022/09/11 12:52:00;;;;;;;5.32;2.83;;;23.70;99.90;;;;;;5025420;28;20034;-63
2022/09/11 12:54:38;;;;;;;3.88;2.70;;;23.80;99.90;;;;;;5026255;28;20057;-63
2022/09/11 12:57:14;;;;;;;4.35;2.92;;;23.60;99.90;;;;;;5029661;28;20056;-63
2022/09/11 12:59:42;;;;;;;;;;;23.60;99.90;;;;;;5030542;28;20037;-63
2022/09/11 13:02:34;;;;;;;6.40;2.97;;;23.70;99.90;;;;;;5024561;28;20063;-64
2022/09/11 13:05:02;;;;;;;6.53;3.78;;;23.70;99.90;;;;;;5031054;28;20037;-64